Time;durP1;ratioP1;P1;durP2;ratioP2;P2;SDS_P1;SDS_P2;PMS_P1;PMS_P2;Temp;Humidity;BMP_temperature;BMP_pressure;BME280_temperature;BME280_humidity;BME280_pressure;Samples;Min_cycle;Max_cycle;Signal;HPM_P1;HPM_P2
2023/11/27 00:01:59;;;;;;;10.98;3.95;;;7.40;95.20;;;;;;4260618;27;20046;-57
2023/11/27 00:04:02;;;;;;;14.00;3.90;;;7.50;95.40;;;;;;4249333;27;20051;-57
2023/11/27 00:06:06;;;;;;;9.50;4.03;;;7.50;95.20;;;;;;4258394;27;20079;-58
2023/11/27 00:08:08;;;;;;;7.40;3.30;;;7.40;95.20;;;;;;4253884;27;20404;-57
2023/11/27 00:10:15;;;;;;;9.50;4.20;;;7.40;95.40;;;;;;4250316;27;20051;-58
2023/11/27 00:12:17;;;;;;;11.90;4.18;;;7.40;95.20;;;;;;4242211;27;20053;-58
2023/11/27 00:14:19;;;;;;;12.07;4.28;;;7.40;95.20;;;;;;4249014;27;20054;-58
2023/11/27 00:16:21;;;;;;;12.43;4.40;;;7.40;95.10;;;;;;4256620;27;20054;-58
2023/11/27 00:18:25;;;;;;;13.05;4.60;;;7.40;95.60;;;;;;4253203;27;20043;-57
2023/11/27 00:20:27;;;;;;;16.60;4.20;;;7.40;95.20;;;;;;4250083;27;20085;-58
2023/11/27 00:22:29;;;;;;;13.07;4.20;;;7.30;95.40;;;;;;4260602;27;20043;-58
2023/11/27 00:24:31;;;;;;;8.95;4.30;;;7.40;95.50;;;;;;4248881;27;20071;-57
2023/11/27 00:26:33;;;;;;;11.68;4.43;;;7.30;95.70;;;;;;4255815;27;20034;-58
2023/11/27 00:28:36;;;;;;;10.52;4.13;;;7.30;95.40;;;;;;4254193;27;20039;-58
2023/11/27 00:30:38;;;;;;;11.50;3.85;;;7.30;95.50;;;;;;4249777;27;20381;-58
2023/11/27 00:32:40;;;;;;;13.23;4.55;;;7.30;95.90;;;;;;4260481;27;20453;-57
2023/11/27 00:34:43;;;;;;;11.00;3.88;;;7.30;95.30;;;;;;4247684;27;20043;-57
2023/11/27 00:36:45;;;;;;;11.63;4.90;;;7.30;95.60;;;;;;4254627;27;20038;-57
2023/11/27 00:38:47;;;;;;;10.07;3.47;;;7.40;95.60;;;;;;4254782;27;20047;-57
2023/11/27 00:40:49;;;;;;;9.95;4.35;;;7.40;95.90;;;;;;4249037;27;20047;-58
2023/11/27 00:42:52;;;;;;;10.30;4.40;;;7.40;95.60;;;;;;4260462;27;20047;-58
2023/11/27 00:44:54;;;;;;;10.15;4.43;;;7.40;95.50;;;;;;4248496;27;20067;-60
2023/11/27 00:46:58;;;;;;;14.18;4.30;;;7.40;95.50;;;;;;4254503;27;20043;-59
2023/11/27 00:49:00;;;;;;;16.83;4.32;;;7.40;95.60;;;;;;4258638;27;20053;-58
2023/11/27 00:51:04;;;;;;;11.15;3.88;;;7.40;95.50;;;;;;4265648;27;20051;-58
2023/11/27 00:53:06;;;;;;;11.45;4.25;;;7.40;95.50;;;;;;4261226;27;20043;-57
2023/11/27 00:55:09;;;;;;;9.40;3.97;;;7.40;95.60;;;;;;4248435;27;20089;-57
2023/11/27 00:57:11;;;;;;;12.63;4.60;;;7.40;95.60;;;;;;4252296;27;20424;-57
2023/11/27 00:59:13;;;;;;;12.27;3.90;;;7.40;95.30;;;;;;4256705;27;20039;-58
2023/11/27 01:01:16;;;;;;;10.52;3.58;;;7.40;95.50;;;;;;4248444;27;20058;-58
2023/11/27 01:03:18;;;;;;;8.93;3.97;;;7.40;95.50;;;;;;4259817;27;20042;-57
2023/11/27 01:05:20;;;;;;;11.98;3.90;;;7.40;95.70;;;;;;4249006;27;20047;-57
2023/11/27 01:07:24;;;;;;;13.90;4.22;;;7.50;95.60;;;;;;4250290;27;20039;-58
2023/11/27 01:09:26;;;;;;;12.43;3.93;;;7.40;95.30;;;;;;4258123;27;20220;-57
2023/11/27 01:11:28;;;;;;;11.68;4.63;;;7.50;95.50;;;;;;4247949;27;20419;-57
2023/11/27 01:13:30;;;;;;;13.63;4.07;;;7.50;95.40;;;;;;4258245;27;20050;-58
2023/11/27 01:15:32;;;;;;;14.20;4.20;;;7.50;95.30;;;;;;4250050;27;20054;-57
2023/11/27 01:17:34;;;;;;;12.68;3.85;;;7.60;95.10;;;;;;4233272;27;20039;-57
2023/11/27 01:19:36;;;;;;;11.93;3.88;;;7.50;95.10;;;;;;4253527;27;20483;-57
2023/11/27 01:21:38;;;;;;;11.10;4.57;;;7.50;95.10;;;;;;4264964;27;20506;-58
2023/11/27 01:23:42;;;;;;;13.20;3.78;;;7.50;95.30;;;;;;4260530;27;20425;-57
2023/11/27 01:25:44;;;;;;;9.57;3.58;;;7.60;95.60;;;;;;4250934;27;20078;-58
2023/11/27 01:27:46;;;;;;;11.80;4.40;;;7.50;95.40;;;;;;4249350;27;20047;-57
2023/11/27 01:29:49;;;;;;;9.82;3.75;;;7.60;95.70;;;;;;4259207;27;20116;-57
2023/11/27 01:31:51;;;;;;;9.07;3.92;;;7.50;96.10;;;;;;4247805;27;20057;-57
2023/11/27 01:33:53;;;;;;;7.38;3.58;;;7.50;95.90;;;;;;4255337;27;20049;-57
2023/11/27 01:35:55;;;;;;;11.75;3.60;;;7.50;96.20;;;;;;4252215;27;20039;-56
2023/11/27 01:37:57;;;;;;;11.82;3.70;;;7.50;96.00;;;;;;4248945;27;20125;-57
2023/11/27 01:40:00;;;;;;;10.98;3.50;;;7.50;95.80;;;;;;4259168;27;20047;-58
2023/11/27 01:42:03;;;;;;;17.27;3.72;;;7.40;95.80;;;;;;4247897;27;20047;-57
2023/11/27 01:44:05;;;;;;;12.25;3.72;;;7.40;96.00;;;;;;4254499;27;20089;-58
2023/11/27 01:46:21;;;;;;;7.85;3.28;;;7.40;95.80;;;;;;4256528;27;20789;-57
2023/11/27 01:48:27;;;;;;;12.07;3.78;;;7.40;96.00;;;;;;4262154;27;20074;-59
2023/11/27 01:50:30;;;;;;;9.95;3.65;;;7.50;96.00;;;;;;4251158;27;20046;-57
2023/11/27 01:52:35;;;;;;;10.00;3.25;;;7.60;95.90;;;;;;4265461;27;20042;-59
2023/11/27 01:54:40;;;;;;;7.05;2.65;;;7.60;95.40;;;;;;4257313;27;20069;-59
2023/11/27 01:56:48;;;;;;;9.52;3.95;;;7.60;95.30;;;;;;4262103;27;20047;-58
2023/11/27 01:58:51;;;;;;;12.27;3.83;;;7.60;95.30;;;;;;4264547;27;20039;-58
2023/11/27 02:00:54;;;;;;;8.75;3.05;;;7.70;95.40;;;;;;4254279;27;20110;-58
2023/11/27 02:02:57;;;;;;;10.90;3.25;;;7.70;95.20;;;;;;4265435;27;20043;-57
2023/11/27 02:04:59;;;;;;;12.15;3.38;;;7.60;95.10;;;;;;4256568;27;20062;-57
2023/11/27 02:07:02;;;;;;;10.02;3.63;;;7.60;95.00;;;;;;4242701;28;20043;-57
2023/11/27 02:09:05;;;;;;;13.77;4.22;;;7.60;94.90;;;;;;4263296;27;20115;-60
2023/11/27 02:11:07;;;;;;;8.18;2.92;;;7.60;94.80;;;;;;4234728;27;20043;-57
2023/11/27 02:13:12;;;;;;;9.40;3.00;;;7.60;94.80;;;;;;4245846;28;20084;-57
2023/11/27 02:15:14;;;;;;;12.10;3.95;;;7.60;95.00;;;;;;4256473;27;20043;-57
2023/11/27 02:17:16;;;;;;;9.38;3.40;;;7.70;95.00;;;;;;4259899;27;20042;-61
2023/11/27 02:19:19;;;;;;;7.30;2.83;;;7.70;95.10;;;;;;4263670;27;20477;-57
2023/11/27 02:21:21;;;;;;;8.20;3.05;;;7.70;94.70;;;;;;4253391;27;20101;-57
2023/11/27 02:23:24;;;;;;;7.32;2.55;;;7.70;94.90;;;;;;4265590;27;20060;-57
2023/11/27 02:25:27;;;;;;;11.90;3.63;;;7.70;95.20;;;;;;4260018;27;20043;-57
2023/11/27 02:27:29;;;;;;;7.78;3.33;;;7.70;95.50;;;;;;4254685;27;20131;-58
2023/11/27 02:29:32;;;;;;;6.50;3.28;;;7.50;95.90;;;;;;4252265;27;20094;-62
2023/11/27 02:31:34;;;;;;;9.25;2.78;;;7.60;96.40;;;;;;4254123;27;20085;-62
2023/11/27 02:33:38;;;;;;;11.30;3.13;;;7.70;96.50;;;;;;4250667;28;20059;-58
2023/11/27 02:35:40;;;;;;;9.43;3.40;;;7.60;96.70;;;;;;4255330;27;20034;-62
2023/11/27 02:37:43;;;;;;;7.82;2.85;;;7.60;97.10;;;;;;4256915;27;20047;-60
2023/11/27 02:39:46;;;;;;;10.35;3.58;;;7.50;97.50;;;;;;4249806;27;20049;-59
2023/11/27 02:41:48;;;;;;;7.68;3.13;;;7.60;97.40;;;;;;4262041;27;20434;-57
2023/11/27 02:43:50;;;;;;;10.52;3.28;;;7.50;97.00;;;;;;4249373;28;20046;-57
2023/11/27 02:45:52;;;;;;;9.27;3.55;;;7.50;97.40;;;;;;4252778;27;20039;-57
2023/11/27 02:47:55;;;;;;;12.25;3.55;;;7.50;97.50;;;;;;4264375;27;20095;-57
2023/11/27 02:50:00;;;;;;;10.07;3.13;;;7.50;97.60;;;;;;4265151;27;20441;-57
2023/11/27 02:52:03;;;;;;;12.23;3.38;;;7.50;98.00;;;;;;4260402;27;20051;-58
2023/11/27 02:54:05;;;;;;;8.45;3.25;;;7.40;97.70;;;;;;4247730;28;20126;-57
2023/11/27 02:56:09;;;;;;;10.73;3.28;;;7.40;98.10;;;;;;4233005;28;20089;-57
2023/11/27 02:58:11;;;;;;;10.32;2.90;;;7.30;97.90;;;;;;4255341;27;20043;-57
2023/11/27 03:00:15;;;;;;;10.35;3.22;;;7.30;98.00;;;;;;4264528;27;20042;-57
2023/11/27 03:02:17;;;;;;;9.45;3.30;;;7.20;97.90;;;;;;4253006;27;20043;-58
2023/11/27 03:04:19;;;;;;;10.10;3.55;;;7.30;97.80;;;;;;4266694;27;20041;-58
2023/11/27 03:06:21;;;;;;;7.38;2.72;;;7.30;98.30;;;;;;4264511;27;20049;-57
2023/11/27 03:08:23;;;;;;;8.13;3.03;;;7.30;98.30;;;;;;4250262;27;20389;-57
2023/11/27 03:10:25;;;;;;;8.70;3.10;;;7.30;98.30;;;;;;4249773;27;20066;-58
2023/11/27 03:12:29;;;;;;;10.25;3.20;;;7.30;98.20;;;;;;4260502;27;20047;-57
2023/11/27 03:14:31;;;;;;;7.68;2.90;;;7.30;98.00;;;;;;4251649;27;20091;-58
2023/11/27 03:16:34;;;;;;;9.60;3.65;;;7.30;97.70;;;;;;4251076;27;20042;-58
2023/11/27 03:18:36;;;;;;;7.65;2.50;;;7.30;97.60;;;;;;4261292;27;20039;-57
2023/11/27 03:20:38;;;;;;;11.02;3.22;;;7.30;97.80;;;;;;4250246;27;20051;-57
2023/11/27 03:22:40;;;;;;;7.53;2.70;;;7.30;97.80;;;;;;4259461;27;20039;-58
2023/11/27 03:24:42;;;;;;;8.02;2.90;;;7.40;97.60;;;;;;4252919;27;20122;-57
2023/11/27 03:26:45;;;;;;;13.13;3.13;;;7.40;97.10;;;;;;4251070;27;20046;-57
2023/11/27 03:28:49;;;;;;;7.40;3.03;;;7.40;97.80;;;;;;4261555;27;20089;-58
2023/11/27 03:30:51;;;;;;;7.30;2.60;;;7.40;97.80;;;;;;4250026;27;20074;-57
2023/11/27 03:32:55;;;;;;;6.15;2.85;;;7.40;98.40;;;;;;4257958;27;20042;-58
2023/11/27 03:34:57;;;;;;;8.15;3.00;;;7.40;97.60;;;;;;4253732;27;20051;-57
2023/11/27 03:37:00;;;;;;;8.75;3.17;;;7.40;97.80;;;;;;4250817;27;20070;-58
2023/11/27 03:39:03;;;;;;;6.78;2.28;;;7.40;97.40;;;;;;4260808;27;20164;-58
2023/11/27 03:41:05;;;;;;;8.52;3.67;;;7.40;97.30;;;;;;4249851;27;20047;-57
2023/11/27 03:43:07;;;;;;;8.82;2.97;;;7.40;97.20;;;;;;4256822;27;20049;-57
2023/11/27 03:45:11;;;;;;;7.68;2.75;;;7.40;97.10;;;;;;4254744;27;20059;-58
2023/11/27 03:47:13;;;;;;;6.30;2.60;;;7.40;97.40;;;;;;4261016;27;20043;-58
2023/11/27 03:49:16;;;;;;;9.20;2.95;;;7.30;97.60;;;;;;4243639;27;20088;-58
2023/11/27 03:51:19;;;;;;;6.90;2.60;;;7.30;97.60;;;;;;4249799;27;20044;-61
2023/11/27 03:53:21;;;;;;;9.15;2.90;;;7.30;98.00;;;;;;4257328;27;20051;-57
2023/11/27 03:55:24;;;;;;;8.02;2.70;;;7.30;98.00;;;;;;4255473;27;20392;-57
2023/11/27 03:57:27;;;;;;;8.90;2.97;;;7.20;98.50;;;;;;4250202;27;20043;-57
2023/11/27 03:59:29;;;;;;;9.65;3.60;;;7.10;98.60;;;;;;4260600;27;20473;-58
2023/11/27 04:01:32;;;;;;;6.47;2.80;;;7.10;98.80;;;;;;4249280;27;20047;-57
2023/11/27 04:03:36;;;;;;;5.68;2.70;;;7.10;98.90;;;;;;4236134;27;20485;-57
2023/11/27 04:05:38;;;;;;;9.52;2.50;;;7.10;98.90;;;;;;4256230;27;20054;-57
2023/11/27 04:07:40;;;;;;;8.40;3.08;;;7.10;99.00;;;;;;4248825;27;20047;-58
2023/11/27 04:09:42;;;;;;;6.13;2.30;;;7.00;99.00;;;;;;4253788;27;20239;-58
2023/11/27 04:11:45;;;;;;;9.65;2.88;;;7.00;99.30;;;;;;4266771;27;20049;-57
2023/11/27 04:13:50;;;;;;;8.25;2.90;;;6.90;99.70;;;;;;4261034;27;20047;-58
2023/11/27 04:15:52;;;;;;;8.57;3.35;;;6.80;99.90;;;;;;4258258;27;20042;-58
2023/11/27 04:17:56;;;;;;;6.75;2.70;;;6.90;99.80;;;;;;4266293;27;20127;-58
2023/11/27 04:20:04;;;;;;;9.60;3.28;;;6.80;99.90;;;;;;4261899;27;20134;-58
2023/11/27 04:22:07;;;;;;;8.07;2.97;;;6.80;99.90;;;;;;4248561;27;20043;-59
2023/11/27 04:24:09;;;;;;;11.80;3.42;;;6.80;99.80;;;;;;4252976;27;20038;-57
2023/11/27 04:26:12;;;;;;;11.68;3.20;;;6.80;99.80;;;;;;4256993;27;20054;-57
2023/11/27 04:28:14;;;;;;;7.65;2.75;;;6.70;99.90;;;;;;4249025;27;20376;-58
2023/11/27 04:30:16;;;;;;;8.00;3.00;;;6.70;99.90;;;;;;4261331;27;20491;-57
2023/11/27 04:32:18;;;;;;;9.70;2.75;;;6.70;99.90;;;;;;4248194;27;20047;-57
2023/11/27 04:34:21;;;;;;;7.50;2.80;;;6.70;99.90;;;;;;4251526;27;20047;-57
2023/11/27 04:36:24;;;;;;;9.90;3.53;;;6.70;99.90;;;;;;4258067;27;20480;-58
2023/11/27 04:38:26;;;;;;;8.95;2.95;;;6.70;99.90;;;;;;4248698;27;20090;-58
2023/11/27 04:40:28;;;;;;;11.63;2.85;;;6.70;99.90;;;;;;4259749;27;20091;-57
2023/11/27 04:42:33;;;;;;;10.43;2.70;;;6.70;99.90;;;;;;4251216;27;20045;-61
2023/11/27 04:44:35;;;;;;;;;;;6.70;99.90;;;;;;4253587;27;20126;-60
2023/11/27 04:46:37;;;;;;;8.55;2.60;;;6.70;99.90;;;;;;4249694;27;19919;-63
2023/11/27 04:48:39;;;;;;;10.82;3.28;;;6.70;99.90;;;;;;4269549;27;20043;-61
2023/11/27 04:50:46;;;;;;;9.70;3.38;;;6.70;99.90;;;;;;4257576;27;20047;-59
2023/11/27 04:52:48;;;;;;;9.73;3.05;;;6.60;99.90;;;;;;4266608;27;20511;-61
2023/11/27 04:54:50;;;;;;;5.95;3.00;;;6.60;99.90;;;;;;4248393;27;20070;-58
2023/11/27 04:56:52;;;;;;;6.95;2.88;;;6.60;99.90;;;;;;4257493;27;20053;-59
2023/11/27 04:58:54;;;;;;;8.57;3.00;;;6.60;99.90;;;;;;4268481;27;20070;-62
2023/11/27 05:00:58;;;;;;;7.82;2.83;;;6.50;99.90;;;;;;4257547;27;20046;-58
2023/11/27 05:03:00;;;;;;;9.23;3.37;;;6.60;99.90;;;;;;4265174;27;20120;-62
2023/11/27 05:05:03;;;;;;;7.65;3.25;;;6.60;99.90;;;;;;4266779;27;20500;-63
2023/11/27 05:07:06;;;;;;;10.35;3.47;;;6.60;99.90;;;;;;4255332;27;20046;-58
2023/11/27 05:09:08;;;;;;;9.85;2.90;;;6.60;99.90;;;;;;4267764;27;20043;-63
2023/11/27 05:11:17;;;;;;;8.57;3.08;;;6.60;99.90;;;;;;4258506;27;20043;-60
2023/11/27 05:13:19;;;;;;;8.57;3.17;;;6.70;99.90;;;;;;4245198;27;20043;-58
2023/11/27 05:15:21;;;;;;;4.95;2.72;;;6.60;99.90;;;;;;4264076;27;20049;-58
2023/11/27 05:17:23;;;;;;;5.93;2.78;;;6.60;99.90;;;;;;4253539;27;20479;-57
2023/11/27 05:19:25;;;;;;;12.13;2.95;;;6.60;99.90;;;;;;4265496;27;20046;-57
2023/11/27 05:21:27;;;;;;;11.38;3.63;;;6.60;99.90;;;;;;4256825;27;20494;-58
2023/11/27 05:23:32;;;;;;;6.97;3.30;;;6.60;99.90;;;;;;4260666;27;20392;-58
2023/11/27 05:25:34;;;;;;;8.48;3.28;;;6.60;99.90;;;;;;4263836;27;20047;-58
2023/11/27 05:27:37;;;;;;;7.25;3.30;;;6.60;99.90;;;;;;4253646;27;20039;-59
2023/11/27 05:29:39;;;;;;;10.88;3.03;;;6.60;99.90;;;;;;4265496;27;20138;-57
2023/11/27 05:31:41;;;;;;;7.78;3.13;;;6.60;99.90;;;;;;4257669;27;20062;-58
2023/11/27 05:33:43;;;;;;;8.18;3.28;;;6.70;99.90;;;;;;4259176;27;20402;-57
2023/11/27 05:35:45;;;;;;;9.35;3.78;;;6.60;99.90;;;;;;4262674;27;20039;-58
2023/11/27 05:37:48;;;;;;;7.97;3.10;;;6.60;99.90;;;;;;4252971;27;20054;-57
2023/11/27 05:39:51;;;;;;;12.88;3.10;;;6.70;99.90;;;;;;4264476;27;20073;-58
2023/11/27 05:41:53;;;;;;;7.05;3.65;;;6.70;99.90;;;;;;4258725;27;20491;-57
2023/11/27 05:43:56;;;;;;;7.38;2.83;;;6.60;99.90;;;;;;4257925;27;20051;-57
2023/11/27 05:46:01;;;;;;;10.48;3.58;;;6.70;99.90;;;;;;4263943;27;20073;-57
2023/11/27 05:48:05;;;;;;;9.15;3.40;;;6.70;99.90;;;;;;4259384;27;20050;-57
2023/11/27 05:50:15;;;;;;;7.30;3.45;;;6.80;99.90;;;;;;4247398;27;20083;-58
2023/11/27 05:52:17;;;;;;;11.02;3.78;;;6.80;99.90;;;;;;4253713;27;20046;-58
2023/11/27 05:54:20;;;;;;;8.60;3.42;;;6.90;99.90;;;;;;4254062;27;20070;-57
2023/11/27 05:56:23;;;;;;;9.75;3.75;;;6.90;99.90;;;;;;4248551;27;20049;-57
2023/11/27 05:58:25;;;;;;;9.48;3.53;;;6.80;99.90;;;;;;4259390;27;20081;-57
2023/11/27 06:00:27;;;;;;;10.75;3.72;;;6.70;99.90;;;;;;4247979;27;20116;-58
2023/11/27 06:02:29;;;;;;;11.35;3.80;;;6.90;99.90;;;;;;4253544;27;20045;-58
2023/11/27 06:04:31;;;;;;;10.55;4.22;;;6.70;99.90;;;;;;4255024;27;20051;-58
2023/11/27 06:06:34;;;;;;;11.30;3.60;;;6.70;99.90;;;;;;4248281;27;20073;-57
2023/11/27 06:08:36;;;;;;;10.57;3.60;;;6.70;99.90;;;;;;4260676;27;20047;-57
2023/11/27 06:10:38;;;;;;;7.28;3.53;;;6.70;99.90;;;;;;4229325;28;20127;-58
2023/11/27 06:12:41;;;;;;;6.75;3.63;;;6.70;99.90;;;;;;4251002;27;20053;-56
2023/11/27 06:14:45;;;;;;;9.07;3.75;;;6.80;99.90;;;;;;4256204;27;20052;-58
2023/11/27 06:16:47;;;;;;;8.40;3.90;;;6.80;99.90;;;;;;4246835;28;20051;-57
2023/11/27 06:18:50;;;;;;;10.45;4.13;;;6.80;99.90;;;;;;4259169;27;20444;-57
2023/11/27 06:20:52;;;;;;;9.63;4.00;;;6.70;99.90;;;;;;4247778;27;20077;-58
2023/11/27 06:22:57;;;;;;;10.63;3.83;;;6.70;99.90;;;;;;4249956;27;20050;-57
2023/11/27 06:24:59;;;;;;;7.68;4.07;;;6.70;99.90;;;;;;4238590;28;20470;-57
2023/11/27 06:27:01;;;;;;;11.32;3.60;;;6.80;99.90;;;;;;4247308;28;20040;-57
2023/11/27 06:29:05;;;;;;;6.47;3.45;;;6.80;99.90;;;;;;4258193;27;20039;-56
2023/11/27 06:31:07;;;;;;;10.02;3.80;;;6.90;99.90;;;;;;4248237;27;20051;-57
2023/11/27 06:33:09;;;;;;;9.85;3.50;;;6.90;99.90;;;;;;4248605;27;20043;-57
2023/11/27 06:35:11;;;;;;;10.10;3.83;;;7.00;99.90;;;;;;4257908;27;20330;-57
2023/11/27 06:37:14;;;;;;;9.90;4.03;;;7.00;99.90;;;;;;4247796;27;20084;-57
2023/11/27 06:39:17;;;;;;;7.88;3.97;;;7.00;99.90;;;;;;4233565;27;20455;-55
2023/11/27 06:41:19;;;;;;;6.38;3.40;;;7.00;99.90;;;;;;4233700;28;20039;-57
2023/11/27 06:43:21;;;;;;;7.82;3.60;;;7.00;99.90;;;;;;4233147;28;20050;-57
2023/11/27 06:45:25;;;;;;;10.73;3.75;;;7.00;99.90;;;;;;4233637;28;20281;-58
2023/11/27 06:47:27;;;;;;;10.95;3.78;;;7.00;99.90;;;;;;4233270;28;20075;-62
2023/11/27 06:49:30;;;;;;;9.57;3.90;;;7.00;99.90;;;;;;4233541;28;20409;-57
2023/11/27 06:51:32;;;;;;;5.60;3.20;;;6.90;99.90;;;;;;4233632;28;20043;-58
2023/11/27 06:53:36;;;;;;;5.90;3.55;;;6.90;99.90;;;;;;4233488;28;20055;-64
2023/11/27 06:55:38;;;;;;;7.38;3.70;;;6.90;99.90;;;;;;4233155;28;20130;-57
2023/11/27 06:57:41;;;;;;;6.00;3.95;;;6.90;99.90;;;;;;4233407;28;20050;-57
2023/11/27 06:59:43;;;;;;;7.60;3.28;;;7.00;99.90;;;;;;4233299;28;20101;-57
2023/11/27 07:01:47;;;;;;;5.68;3.20;;;7.00;99.90;;;;;;4233044;28;20086;-57
2023/11/27 07:03:49;;;;;;;9.35;3.78;;;7.10;99.90;;;;;;4232941;28;20057;-57
2023/11/27 07:05:51;;;;;;;8.95;3.22;;;7.10;99.90;;;;;;4233332;28;20124;-56
2023/11/27 07:07:53;;;;;;;6.00;3.15;;;7.10;99.90;;;;;;4233285;28;20039;-57
2023/11/27 07:09:56;;;;;;;5.85;2.70;;;7.10;99.90;;;;;;4232896;28;20043;-57
2023/11/27 07:11:58;;;;;;;6.90;3.10;;;7.10;99.90;;;;;;4233532;27;20051;-57
2023/11/27 07:14:00;;;;;;;7.43;3.00;;;7.20;99.90;;;;;;4232015;28;20051;-56
2023/11/27 07:16:03;;;;;;;7.00;3.10;;;7.30;99.90;;;;;;4228853;28;20052;-57
2023/11/27 07:18:06;;;;;;;5.72;3.10;;;7.20;99.90;;;;;;4232980;28;20072;-57
2023/11/27 07:20:21;;;;;;;5.75;2.90;;;7.30;99.90;;;;;;4233066;28;20071;-57
2023/11/27 07:22:23;;;;;;;4.60;2.92;;;7.10;99.90;;;;;;4235247;28;20134;-65
2023/11/27 07:24:25;;;;;;;7.07;3.20;;;7.10;99.90;;;;;;4234916;28;20124;-59
2023/11/27 07:26:27;;;;;;;5.53;3.15;;;7.20;99.90;;;;;;4235666;28;20069;-61
2023/11/27 07:28:30;;;;;;;4.53;2.65;;;7.20;99.90;;;;;;4235141;28;20051;-66
2023/11/27 07:30:36;;;;;;;5.57;2.67;;;7.20;99.90;;;;;;4234718;28;20088;-57
2023/11/27 07:32:38;;;;;;;6.57;2.72;;;7.30;99.90;;;;;;4232970;28;20117;-57
2023/11/27 07:34:42;;;;;;;6.38;3.08;;;7.30;99.90;;;;;;4232761;28;20443;-58
2023/11/27 07:36:44;;;;;;;5.38;3.15;;;7.30;99.90;;;;;;4233186;28;20218;-58
2023/11/27 07:38:49;;;;;;;4.70;2.60;;;7.30;99.90;;;;;;4240269;27;20058;-63
2023/11/27 07:40:52;;;;;;;6.18;3.28;;;7.20;99.90;;;;;;4257003;27;20038;-58
2023/11/27 07:42:54;;;;;;;5.03;2.70;;;7.20;99.90;;;;;;4256310;27;20057;-58
2023/11/27 07:44:57;;;;;;;10.98;4.57;;;7.20;99.90;;;;;;4249847;27;20442;-62
2023/11/27 07:46:59;;;;;;;7.85;3.00;;;7.20;99.90;;;;;;4263024;27;20039;-57
2023/11/27 07:49:02;;;;;;;5.90;2.75;;;7.20;99.90;;;;;;4265497;27;20047;-58
2023/11/27 07:51:07;;;;;;;3.90;2.17;;;7.20;99.90;;;;;;4261944;27;20092;-57
2023/11/27 07:53:09;;;;;;;4.53;2.67;;;7.20;99.90;;;;;;4258802;27;20042;-58
2023/11/27 07:55:12;;;;;;;4.32;2.00;;;7.30;99.90;;;;;;4266115;27;20438;-58
2023/11/27 07:57:17;;;;;;;6.00;2.78;;;7.20;99.90;;;;;;4264854;27;20043;-57
2023/11/27 07:59:20;;;;;;;7.53;2.50;;;7.20;99.90;;;;;;4249129;27;20088;-58
2023/11/27 08:01:22;;;;;;;4.43;2.55;;;7.30;99.90;;;;;;4253593;27;20054;-58
2023/11/27 08:03:25;;;;;;;13.15;3.88;;;7.30;99.90;;;;;;4257780;27;20556;-58
2023/11/27 08:05:29;;;;;;;9.93;3.70;;;7.30;99.90;;;;;;4249223;27;20100;-57
2023/11/27 08:07:33;;;;;;;15.60;3.72;;;7.30;99.90;;;;;;4261853;27;20134;-63
2023/11/27 08:09:37;;;;;;;29.98;5.88;;;7.30;99.90;;;;;;4249716;27;20062;-62
2023/11/27 08:11:39;;;;;;;9.43;3.15;;;7.40;99.90;;;;;;4236049;27;20040;-62
2023/11/27 08:13:43;;;;;;;15.43;3.28;;;7.40;99.90;;;;;;4258635;27;20077;-57
2023/11/27 08:15:45;;;;;;;11.30;3.42;;;7.50;99.90;;;;;;4249348;27;20054;-58
2023/11/27 08:17:50;;;;;;;16.52;4.35;;;7.50;99.90;;;;;;4261358;27;20050;-57
2023/11/27 08:19:52;;;;;;;14.93;4.13;;;7.60;99.90;;;;;;4249977;27;20112;-63
2023/11/27 08:21:55;;;;;;;6.40;2.60;;;7.50;99.90;;;;;;4252246;27;20283;-58
2023/11/27 08:23:59;;;;;;;5.15;2.17;;;7.60;99.90;;;;;;4258906;27;20526;-60
2023/11/27 08:26:03;;;;;;;3.60;1.70;;;7.60;99.90;;;;;;4249308;27;20382;-58
2023/11/27 08:28:05;;;;;;;3.63;2.10;;;7.50;99.90;;;;;;4260942;27;20054;-57
2023/11/27 08:30:11;;;;;;;3.03;1.77;;;7.50;99.90;;;;;;4231103;27;20052;-57
2023/11/27 08:32:14;;;;;;;2.72;1.80;;;7.50;99.90;;;;;;4251742;27;20051;-57
2023/11/27 08:34:16;;;;;;;4.47;2.15;;;7.60;99.90;;;;;;4258691;27;20055;-57
2023/11/27 08:36:24;;;;;;;3.90;1.90;;;7.60;99.90;;;;;;4248642;27;20070;-57
2023/11/27 08:38:26;;;;;;;8.73;2.83;;;7.60;99.90;;;;;;4260154;27;20050;-58
2023/11/27 08:40:30;;;;;;;3.72;1.95;;;7.70;99.90;;;;;;4249401;27;20416;-57
2023/11/27 08:42:34;;;;;;;3.17;1.73;;;7.60;99.90;;;;;;4250785;27;20468;-56
2023/11/27 08:44:36;;;;;;;4.55;1.98;;;7.90;99.90;;;;;;4260044;27;20191;-57
2023/11/27 08:46:38;;;;;;;4.32;2.03;;;7.80;99.90;;;;;;4254605;27;20466;-58
2023/11/27 08:48:40;;;;;;;2.47;2.00;;;7.80;99.90;;;;;;4262989;27;20114;-57
2023/11/27 08:50:42;;;;;;;3.67;2.22;;;7.70;99.90;;;;;;4264672;27;20153;-57
2023/11/27 08:52:45;;;;;;;5.07;2.88;;;7.70;99.90;;;;;;4263790;27;20053;-56
2023/11/27 08:54:47;;;;;;;4.45;1.88;;;7.60;99.90;;;;;;4258655;27;20393;-58
2023/11/27 08:56:52;;;;;;;5.97;2.10;;;7.60;99.90;;;;;;4265420;27;20054;-58
2023/11/27 08:58:56;;;;;;;2.85;1.92;;;7.60;99.90;;;;;;4237013;27;20040;-57
2023/11/27 09:00:58;;;;;;;2.10;1.88;;;7.50;99.90;;;;;;4262186;27;20072;-57
2023/11/27 09:03:00;;;;;;;4.65;2.13;;;7.50;99.90;;;;;;4259551;27;20043;-57
2023/11/27 09:05:05;;;;;;;5.50;2.03;;;7.50;99.90;;;;;;4265031;27;20043;-58
2023/11/27 09:07:07;;;;;;;7.25;2.65;;;7.60;99.90;;;;;;4265252;27;20065;-58
2023/11/27 09:09:09;;;;;;;3.38;2.03;;;7.60;99.90;;;;;;4259669;27;20053;-58
2023/11/27 09:11:13;;;;;;;4.18;2.45;;;7.60;99.90;;;;;;4251257;27;20081;-57
2023/11/27 09:13:16;;;;;;;5.70;2.92;;;7.60;99.90;;;;;;4250066;27;20039;-56
2023/11/27 09:15:19;;;;;;;5.95;2.90;;;7.50;99.90;;;;;;4253395;27;20050;-58
2023/11/27 09:17:21;;;;;;;8.75;3.05;;;7.50;99.90;;;;;;4264902;27;20074;-56
2023/11/27 09:19:24;;;;;;;3.33;2.10;;;7.50;99.90;;;;;;4260967;27;20035;-57
2023/11/27 09:21:26;;;;;;;7.75;2.95;;;7.60;99.90;;;;;;4264565;27;20042;-57
2023/11/27 09:23:28;;;;;;;9.07;3.00;;;7.60;99.90;;;;;;4263017;27;20504;-57
2023/11/27 09:25:31;;;;;;;8.13;2.97;;;7.70;99.90;;;;;;4264704;27;20050;-58
2023/11/27 09:27:33;;;;;;;8.57;3.85;;;7.70;99.90;;;;;;4264643;27;20067;-57
2023/11/27 09:29:37;;;;;;;8.38;3.63;;;7.60;99.90;;;;;;4261144;27;20120;-58
2023/11/27 09:31:39;;;;;;;8.93;3.13;;;7.60;99.90;;;;;;4255677;27;20473;-59
2023/11/27 09:33:43;;;;;;;9.18;3.40;;;7.60;99.90;;;;;;4250931;27;20377;-58
2023/11/27 09:35:45;;;;;;;7.72;2.70;;;7.60;99.90;;;;;;4263469;27;20049;-58
2023/11/27 09:37:48;;;;;;;8.38;3.03;;;7.60;99.90;;;;;;4265195;27;20043;-59
2023/11/27 09:39:50;;;;;;;6.90;3.10;;;7.70;99.90;;;;;;4258126;27;20404;-57
2023/11/27 09:41:52;;;;;;;8.93;3.05;;;7.60;99.90;;;;;;4257054;27;20498;-57
2023/11/27 09:43:56;;;;;;;8.57;3.08;;;7.70;99.90;;;;;;4263450;27;20045;-58
2023/11/27 09:46:05;;;;;;;6.57;3.00;;;7.70;99.90;;;;;;4261163;27;20039;-57
2023/11/27 09:48:08;;;;;;;5.05;3.35;;;7.70;99.90;;;;;;4263614;27;20079;-58
2023/11/27 09:50:15;;;;;;;9.35;3.28;;;7.70;99.90;;;;;;4259975;27;20544;-57
2023/11/27 09:52:25;;;;;;;4.57;3.13;;;7.70;99.90;;;;;;4263573;27;20039;-57
2023/11/27 09:54:32;;;;;;;5.78;2.90;;;7.70;99.90;;;;;;4234622;27;20493;-58
2023/11/27 09:56:36;;;;;;;8.30;3.05;;;7.80;99.90;;;;;;4251901;27;20050;-58
2023/11/27 09:58:42;;;;;;;4.80;2.90;;;7.80;99.90;;;;;;4264523;27;20055;-58
2023/11/27 10:00:48;;;;;;;6.97;3.20;;;7.70;99.90;;;;;;4259347;27;20038;-58
2023/11/27 10:02:52;;;;;;;9.25;2.90;;;7.80;99.90;;;;;;4263936;27;20065;-57
2023/11/27 10:04:54;;;;;;;7.38;2.92;;;7.80;99.90;;;;;;4261676;27;20092;-57
2023/11/27 10:06:57;;;;;;;9.43;2.78;;;7.80;99.90;;;;;;4263756;27;20054;-57
2023/11/27 10:09:07;;;;;;;6.43;2.88;;;7.90;99.90;;;;;;4264204;27;20057;-57
2023/11/27 10:11:10;;;;;;;7.28;2.70;;;7.90;99.90;;;;;;4259072;27;20046;-57
2023/11/27 10:13:12;;;;;;;7.22;2.45;;;7.90;99.90;;;;;;4250489;27;20039;-59
2023/11/27 10:15:28;;;;;;;4.13;2.88;;;7.80;99.90;;;;;;4251318;27;20038;-58
2023/11/27 10:17:30;;;;;;;5.68;2.90;;;7.80;99.90;;;;;;4252007;27;20126;-57
2023/11/27 10:19:39;;;;;;;4.80;2.28;;;7.80;99.90;;;;;;4263912;27;20042;-58
2023/11/27 10:21:42;;;;;;;7.30;3.00;;;7.80;99.90;;;;;;4262242;27;20047;-58
2023/11/27 10:23:44;;;;;;;4.35;2.60;;;7.80;99.90;;;;;;4263852;27;20469;-58
2023/11/27 10:25:54;;;;;;;6.32;2.50;;;7.70;99.90;;;;;;4261819;27;20051;-57
2023/11/27 10:27:57;;;;;;;7.25;2.50;;;7.80;99.90;;;;;;4234705;28;20109;-58
2023/11/27 10:30:00;;;;;;;6.93;2.92;;;7.80;99.90;;;;;;4261864;27;20480;-57
2023/11/27 10:32:03;;;;;;;2.80;2.00;;;7.80;99.90;;;;;;4253437;27;20039;-58
2023/11/27 10:34:05;;;;;;;5.38;2.72;;;7.90;99.90;;;;;;4261664;27;20082;-58
2023/11/27 10:36:11;;;;;;;3.53;1.95;;;7.90;99.90;;;;;;4255328;27;20035;-58
2023/11/27 10:38:15;;;;;;;4.63;2.10;;;7.90;99.90;;;;;;4252613;27;20047;-58
2023/11/27 10:40:20;;;;;;;6.20;2.53;;;8.00;99.90;;;;;;4261537;27;20483;-58
2023/11/27 10:42:27;;;;;;;;;;;8.00;99.90;;;;;;4260437;27;20050;-58
2023/11/27 10:44:33;;;;;;;3.88;2.42;;;8.00;99.90;;;;;;4259800;27;20430;-58
2023/11/27 10:46:36;;;;;;;4.65;2.00;;;7.90;99.90;;;;;;4259051;27;20039;-57
2023/11/27 10:48:41;;;;;;;6.45;2.28;;;7.90;99.90;;;;;;4263077;27;20533;-58